Time;durP1;ratioP1;P1;durP2;ratioP2;P2;SDS_P1;SDS_P2;PMS_P1;PMS_P2;Temp;Humidity;BMP_temperature;BMP_pressure;BME280_temperature;BME280_humidity;BME280_pressure;Samples;Min_cycle;Max_cycle;Signal;HPM_P1;HPM_P2
2022/06/09 00:00:11;;;;;;;17.83;12.52;;;14.80;99.90;;;;;;5047534;28;20045;-66
2022/06/09 00:02:40;;;;;;;22.33;13.93;;;14.70;99.90;;;;;;5048634;28;20417;-66
2022/06/09 00:05:08;;;;;;;27.98;15.13;;;15.60;99.90;;;;;;5047039;28;20064;-66
2022/06/09 00:07:35;;;;;;;23.98;14.75;;;14.70;99.90;;;;;;5047773;28;20072;-66
2022/06/09 00:10:08;;;;;;;32.50;15.15;;;14.70;99.90;;;;;;5048122;28;20044;-66
2022/06/09 00:12:33;;;;;;;30.73;13.80;;;14.80;99.90;;;;;;5048420;28;20043;-66
2022/06/09 00:15:00;;;;;;;35.15;16.25;;;14.70;99.90;;;;;;5045651;28;20128;-66
2022/06/09 00:17:26;;;;;;;24.88;13.55;;;14.70;99.90;;;;;;5047223;28;20519;-66
2022/06/09 00:19:52;;;;;;;25.40;12.50;;;14.70;99.90;;;;;;5046879;28;20084;-66
2022/06/09 00:22:18;;;;;;;37.58;14.38;;;14.70;99.90;;;;;;5047456;28;20044;-66
2022/06/09 00:24:43;;;;;;;34.60;13.23;;;14.70;99.90;;;;;;5048516;28;20520;-66
2022/06/09 00:27:09;;;;;;;30.17;12.35;;;15.00;99.90;;;;;;5045258;28;20051;-66
2022/06/09 00:29:35;;;;;;;30.40;13.45;;;14.60;99.90;;;;;;5047277;28;20045;-66
2022/06/09 00:32:01;;;;;;;37.95;12.82;;;14.70;99.90;;;;;;5047838;28;20048;-66
2022/06/09 00:34:27;;;;;;;27.13;12.38;;;14.70;99.90;;;;;;5048393;28;20166;-66
2022/06/09 00:36:52;;;;;;;35.75;14.85;;;14.70;99.90;;;;;;5045957;28;20122;-66
2022/06/09 00:39:18;;;;;;;28.38;12.68;;;14.60;99.90;;;;;;5047942;28;20714;-66
2022/06/09 00:41:44;;;;;;;33.00;12.65;;;14.60;99.90;;;;;;5047818;28;20055;-66
2022/06/09 00:44:23;;;;;;;33.53;14.90;;;14.60;99.90;;;;;;5045591;28;20051;-66
2022/06/09 00:46:54;;;;;;;29.10;13.75;;;14.60;99.90;;;;;;5046241;28;20056;-66
2022/06/09 00:49:40;;;;;;;30.03;13.10;;;14.60;99.90;;;;;;5047572;28;20076;-66
2022/06/09 00:52:10;;;;;;;36.50;14.98;;;14.60;99.90;;;;;;5047153;28;20080;-66
2022/06/09 00:54:42;;;;;;;36.58;14.65;;;14.60;99.90;;;;;;5047877;28;20041;-66
2022/06/09 00:57:14;;;;;;;40.92;14.70;;;14.60;99.90;;;;;;5046672;28;20052;-66
2022/06/09 00:59:46;;;;;;;30.95;13.32;;;14.50;99.90;;;;;;5047653;28;20124;-66
2022/06/09 01:02:15;;;;;;;32.33;13.43;;;14.50;99.90;;;;;;5047571;28;20202;-66
2022/06/09 01:04:42;;;;;;;25.52;14.07;;;14.80;99.90;;;;;;5046395;28;20112;-66
2022/06/09 01:07:15;;;;;;;36.83;13.50;;;14.50;99.90;;;;;;5047243;28;20060;-66
2022/06/09 01:09:41;;;;;;;32.00;13.55;;;14.60;99.90;;;;;;5047430;28;20045;-66
2022/06/09 01:12:25;;;;;;;37.15;14.75;;;14.60;99.90;;;;;;5051079;28;20051;-66
2022/06/09 01:14:53;;;;;;;32.28;13.77;;;14.60;99.90;;;;;;5057835;28;20060;-66
2022/06/09 01:17:27;;;;;;;35.53;12.95;;;14.60;99.90;;;;;;5046707;28;20128;-66
2022/06/09 01:20:30;;;;;;;34.47;13.63;;;14.50;99.90;;;;;;5046929;28;20049;-66
2022/06/09 01:23:18;;;;;;;33.38;13.70;;;14.60;99.90;;;;;;5064933;28;20090;-66
2022/06/09 01:26:02;;;;;;;31.67;14.52;;;14.60;99.90;;;;;;5065107;28;20048;-66
2022/06/09 01:28:47;;;;;;;29.73;12.13;;;14.60;99.90;;;;;;5067146;28;20040;-66
2022/06/09 01:31:41;;;;;;;38.72;14.20;;;14.50;99.90;;;;;;5067087;28;20060;-66
2022/06/09 01:34:34;;;;;;;30.90;13.77;;;14.50;99.90;;;;;;5066193;28;20084;-66
2022/06/09 01:37:07;;;;;;;35.67;13.57;;;14.50;99.90;;;;;;5065049;28;20052;-66
2022/06/09 01:39:42;;;;;;;31.88;12.55;;;14.50;99.90;;;;;;5065882;28;20115;-66
2022/06/09 01:42:29;;;;;;;36.75;13.70;;;14.40;99.90;;;;;;5064915;28;20943;-66
2022/06/09 01:45:28;;;;;;;25.95;12.15;;;14.50;99.90;;;;;;5066481;28;20094;-66
2022/06/09 01:48:04;;;;;;;31.77;13.93;;;14.50;99.90;;;;;;5028025;28;20128;-66
2022/06/09 01:50:43;;;;;;;30.77;14.95;;;14.40;99.90;;;;;;5065078;28;20048;-66
2022/06/09 01:53:14;;;;;;;39.63;16.25;;;14.40;99.90;;;;;;5065628;28;20047;-66
2022/06/09 01:55:50;;;;;;;34.13;16.42;;;14.40;99.90;;;;;;5066564;28;20106;-66
2022/06/09 01:58:22;;;;;;;41.55;18.55;;;14.40;99.90;;;;;;5066583;28;20040;-66
2022/06/09 02:00:52;;;;;;;34.50;17.50;;;14.60;99.90;;;;;;5064296;28;20052;-66
2022/06/09 02:03:29;;;;;;;34.75;19.30;;;14.40;99.90;;;;;;5066646;28;20048;-66
2022/06/09 02:05:58;;;;;;;32.45;18.27;;;14.30;99.90;;;;;;5064852;28;20052;-66
2022/06/09 02:08:25;;;;;;;34.53;18.80;;;14.30;99.90;;;;;;5065697;28;20068;-66
2022/06/09 02:10:57;;;;;;;41.72;19.33;;;14.30;99.90;;;;;;5066000;28;20047;-66
2022/06/09 02:13:34;;;;;;;42.88;20.33;;;14.30;99.90;;;;;;5066257;28;20501;-66
2022/06/09 02:16:03;;;;;;;43.30;20.05;;;14.30;99.90;;;;;;5065133;28;20044;-66
2022/06/09 02:18:32;;;;;;;40.05;20.00;;;14.70;99.90;;;;;;5066059;28;20063;-66
2022/06/09 02:21:04;;;;;;;32.92;18.80;;;14.20;99.90;;;;;;5065157;28;20058;-66
2022/06/09 02:23:30;;;;;;;34.42;18.95;;;14.20;99.90;;;;;;5065842;28;20044;-66
2022/06/09 02:25:56;;;;;;;37.10;20.05;;;14.20;99.90;;;;;;5065834;28;20040;-66
2022/06/09 02:28:22;;;;;;;30.98;19.83;;;14.70;99.90;;;;;;5065356;28;20044;-66
2022/06/09 02:30:48;;;;;;;34.80;19.20;;;14.20;99.90;;;;;;5065808;28;20657;-66
2022/06/09 02:33:13;;;;;;;39.30;20.85;;;14.30;99.90;;;;;;5066166;28;20074;-66
2022/06/09 02:35:41;;;;;;;40.55;20.27;;;14.30;99.90;;;;;;5065142;28;20386;-66
2022/06/09 02:38:07;;;;;;;29.90;18.95;;;14.20;99.90;;;;;;5065627;28;20057;-66
2022/06/09 02:40:33;;;;;;;36.63;19.30;;;14.20;99.90;;;;;;5065796;28;20041;-66
2022/06/09 02:43:00;;;;;;;33.63;19.33;;;14.50;99.90;;;;;;5063402;28;20055;-66
2022/06/09 02:45:27;;;;;;;34.22;20.50;;;14.20;99.90;;;;;;5066263;28;20044;-66
2022/06/09 02:47:53;;;;;;;45.05;20.35;;;14.20;99.90;;;;;;5066019;28;20166;-66
2022/06/09 02:50:18;;;;;;;34.17;20.20;;;14.20;99.90;;;;;;5066481;28;20115;-66
2022/06/09 02:52:44;;;;;;;31.27;21.02;;;14.20;99.90;;;;;;5070265;28;20103;-66
2022/06/09 02:55:11;;;;;;;37.13;21.15;;;14.40;99.90;;;;;;5069369;28;20090;-66
2022/06/09 02:57:37;;;;;;;41.00;20.00;;;14.20;99.90;;;;;;5069203;28;20058;-66
2022/06/09 03:00:07;;;;;;;40.50;22.00;;;14.20;99.90;;;;;;5069520;28;20123;-66
2022/06/09 03:02:33;;;;;;;38.25;21.52;;;14.20;99.90;;;;;;5069370;28;20496;-66
2022/06/09 03:04:59;;;;;;;48.47;23.33;;;14.20;99.90;;;;;;5068602;28;20040;-66
2022/06/09 03:07:25;;;;;;;45.97;24.63;;;14.20;99.90;;;;;;5069942;28;20091;-66
2022/06/09 03:09:51;;;;;;;40.22;22.08;;;14.20;99.90;;;;;;5069304;28;20080;-66
2022/06/09 03:12:18;;;;;;;45.00;23.05;;;14.20;99.90;;;;;;5067638;28;20501;-66
2022/06/09 03:14:43;;;;;;;46.75;23.65;;;14.20;99.90;;;;;;5069719;28;20041;-66
2022/06/09 03:17:09;;;;;;;50.90;24.75;;;14.10;99.90;;;;;;5068282;28;20052;-66
2022/06/09 03:19:36;;;;;;;41.70;22.65;;;14.10;99.90;;;;;;5069406;28;20036;-66
2022/06/09 03:22:02;;;;;;;46.72;25.05;;;14.10;99.90;;;;;;5068756;28;20535;-66
2022/06/09 03:24:28;;;;;;;49.30;24.83;;;14.20;99.90;;;;;;5067207;28;20084;-66
2022/06/09 03:26:54;;;;;;;45.60;23.65;;;14.30;99.90;;;;;;5069355;28;20037;-66
2022/06/09 03:29:20;;;;;;;48.17;23.70;;;14.20;99.90;;;;;;5068982;28;20040;-66
2022/06/09 03:31:46;;;;;;;51.30;25.42;;;14.10;99.90;;;;;;5068657;28;20032;-66
2022/06/09 03:34:13;;;;;;;46.67;24.83;;;14.10;99.90;;;;;;5068747;28;20669;-66
2022/06/09 03:36:39;;;;;;;55.15;24.08;;;14.20;99.90;;;;;;5067612;28;20080;-66
2022/06/09 03:39:05;;;;;;;36.70;21.80;;;14.00;99.90;;;;;;5067932;28;20079;-66
2022/06/09 03:41:30;;;;;;;50.00;23.02;;;14.10;99.90;;;;;;5068766;28;20086;-66
2022/06/09 03:43:56;;;;;;;45.53;23.30;;;14.10;99.90;;;;;;5068835;28;20080;-66
2022/06/09 03:46:21;;;;;;;48.53;24.45;;;14.10;99.90;;;;;;5068103;28;20047;-66
2022/06/09 03:48:48;;;;;;;50.92;24.33;;;14.20;99.90;;;;;;5068539;28;20101;-66
2022/06/09 03:51:13;;;;;;;42.47;22.50;;;14.10;99.90;;;;;;5067947;28;20036;-66
2022/06/09 03:53:40;;;;;;;44.05;21.88;;;14.20;99.90;;;;;;5067862;28;20413;-66
2022/06/09 03:56:11;;;;;;;43.83;22.30;;;14.10;99.90;;;;;;5068497;28;20127;-66
2022/06/09 03:58:37;;;;;;;34.60;22.55;;;14.10;99.90;;;;;;5068747;28;20048;-66
2022/06/09 04:01:02;;;;;;;43.10;22.48;;;14.20;99.90;;;;;;5067270;28;20090;-66
2022/06/09 04:03:29;;;;;;;42.55;21.80;;;14.20;99.90;;;;;;5067293;28;20060;-65
2022/06/09 04:05:56;;;;;;;40.92;22.42;;;14.20;99.90;;;;;;5068259;28;20473;-66
2022/06/09 04:08:22;;;;;;;41.33;20.95;;;14.10;99.90;;;;;;5067679;28;20082;-66
2022/06/09 04:10:48;;;;;;;39.30;20.13;;;14.20;99.90;;;;;;5061080;28;20044;-66
2022/06/09 04:13:15;;;;;;;37.95;20.58;;;14.20;99.90;;;;;;5055218;28;20052;-66
2022/06/09 04:15:43;;;;;;;34.75;20.90;;;14.20;99.90;;;;;;5058077;28;20080;-66
2022/06/09 04:18:10;;;;;;;37.90;22.30;;;14.20;99.90;;;;;;5047735;28;20053;-66
2022/06/09 04:20:35;;;;;;;31.85;19.75;;;14.20;99.90;;;;;;5046019;28;20110;-66
2022/06/09 04:23:01;;;;;;;35.38;21.55;;;14.20;99.90;;;;;;5047630;28;20049;-66
2022/06/09 04:25:27;;;;;;;45.38;23.92;;;14.20;99.90;;;;;;5048253;28;20064;-66
2022/06/09 04:27:53;;;;;;;33.70;22.35;;;14.20;99.90;;;;;;5047518;28;20051;-66
2022/06/09 04:30:20;;;;;;;29.75;20.60;;;14.20;99.90;;;;;;5047810;28;20049;-66
2022/06/09 04:32:46;;;;;;;35.22;21.92;;;14.20;99.90;;;;;;5048246;28;20048;-66
2022/06/09 04:35:12;;;;;;;33.55;22.27;;;14.20;99.90;;;;;;5050378;28;20076;-66
2022/06/09 04:38:00;;;;;;;39.97;21.88;;;14.20;99.90;;;;;;5049476;28;20123;-66
2022/06/09 04:40:30;;;;;;;40.40;24.20;;;14.20;99.90;;;;;;5055419;28;20090;-66
2022/06/09 04:42:56;;;;;;;36.25;24.58;;;14.20;99.90;;;;;;5054369;28;20044;-66
2022/06/09 04:45:21;;;;;;;42.35;25.02;;;14.20;99.90;;;;;;5054066;28;20050;-66
2022/06/09 04:47:47;;;;;;;38.65;24.98;;;14.20;99.90;;;;;;5054967;28;20056;-66
2022/06/09 04:50:15;;;;;;;32.40;23.70;;;14.20;99.90;;;;;;5055159;28;20069;-66
2022/06/09 04:52:41;;;;;;;39.53;23.92;;;14.50;99.90;;;;;;5054263;28;20049;-66
2022/06/09 04:55:07;;;;;;;41.33;24.52;;;14.20;99.90;;;;;;5051292;28;20577;-66
2022/06/09 04:57:32;;;;;;;43.70;25.15;;;14.30;99.90;;;;;;5053073;28;20076;-66
2022/06/09 04:59:58;;;;;;;31.15;23.60;;;14.50;99.90;;;;;;5052470;28;20075;-66
2022/06/09 05:02:24;;;;;;;31.70;22.60;;;14.30;99.90;;;;;;5049662;28;20048;-65
2022/06/09 05:04:49;;;;;;;34.95;24.25;;;14.30;99.90;;;;;;5048766;28;20461;-66
2022/06/09 05:07:15;;;;;;;33.60;25.23;;;14.30;99.90;;;;;;5055382;28;20037;-66
2022/06/09 05:09:40;;;;;;;38.85;25.90;;;14.30;99.90;;;;;;5054928;28;20045;-66
2022/06/09 05:12:06;;;;;;;35.90;25.02;;;14.40;99.90;;;;;;5054769;28;20045;-65
2022/06/09 05:14:32;;;;;;;36.72;25.88;;;14.40;99.90;;;;;;5055761;28;20070;-66
2022/06/09 05:16:57;;;;;;;48.30;27.15;;;14.40;99.90;;;;;;5055383;28;20086;-66
2022/06/09 05:19:23;;;;;;;44.58;26.90;;;14.50;99.90;;;;;;5053149;28;20084;-66
2022/06/09 05:21:48;;;;;;;37.83;26.15;;;14.40;99.90;;;;;;5055767;28;20566;-65
2022/06/09 05:24:15;;;;;;;41.20;28.00;;;14.50;99.90;;;;;;5051087;28;20090;-65
2022/06/09 05:26:41;;;;;;;43.80;26.92;;;14.50;99.90;;;;;;5053384;28;20425;-66
2022/06/09 05:29:07;;;;;;;45.25;26.23;;;14.70;99.90;;;;;;5049915;28;20071;-66
2022/06/09 05:31:33;;;;;;;33.40;24.63;;;14.60;99.90;;;;;;5052138;28;20812;-66
2022/06/09 05:33:58;;;;;;;38.53;25.23;;;14.50;99.90;;;;;;5050521;28;20139;-66
2022/06/09 05:36:24;;;;;;;33.70;23.75;;;14.60;99.90;;;;;;5050601;28;20053;-66
2022/06/09 05:47:03;;;;;;;41.00;25.65;;;14.60;99.90;;;;;;5051590;28;20056;-66
2022/06/09 05:49:30;;;;;;;33.42;23.77;;;14.60;99.90;;;;;;5052533;28;20048;-66
2022/06/09 05:51:56;;;;;;;33.85;24.75;;;14.60;99.90;;;;;;5054139;28;20088;-66
2022/06/09 05:54:22;;;;;;;33.35;24.85;;;14.70;99.90;;;;;;5056078;28;20073;-66
2022/06/09 05:56:48;;;;;;;26.42;22.02;;;14.80;99.90;;;;;;5050857;28;20132;-66
2022/06/09 05:59:14;;;;;;;26.75;22.13;;;14.60;99.90;;;;;;5051942;28;20040;-66
2022/06/09 06:01:40;;;;;;;30.83;21.98;;;14.70;99.90;;;;;;5048991;28;20098;-66
2022/06/09 06:04:07;;;;;;;32.80;21.33;;;14.70;99.90;;;;;;5058330;28;20088;-66
2022/06/09 06:06:33;;;;;;;29.00;21.52;;;14.60;99.90;;;;;;5045584;28;20076;-66
2022/06/09 06:08:59;;;;;;;25.90;20.27;;;14.70;99.90;;;;;;5051511;28;20538;-66
2022/06/09 06:11:25;;;;;;;24.77;19.27;;;14.70;99.90;;;;;;5050682;28;20041;-66
2022/06/09 06:13:50;;;;;;;24.90;20.95;;;14.70;99.90;;;;;;5051678;28;20060;-66
2022/06/09 06:16:17;;;;;;;27.35;20.52;;;15.00;99.90;;;;;;5051741;28;20164;-66
2022/06/09 06:18:42;;;;;;;25.85;21.90;;;14.90;99.90;;;;;;5054524;28;20119;-66
2022/06/09 06:21:08;;;;;;;26.98;21.05;;;14.80;99.90;;;;;;5047137;28;20560;-66
2022/06/09 06:23:34;;;;;;;24.42;21.27;;;14.90;99.90;;;;;;5050181;28;20040;-66
2022/06/09 06:25:59;;;;;;;27.85;21.38;;;15.10;99.90;;;;;;5049726;28;20477;-66
2022/06/09 06:28:26;;;;;;;22.45;19.35;;;15.00;99.90;;;;;;5054155;28;20481;-66
2022/06/09 06:30:53;;;;;;;23.02;18.85;;;15.20;99.90;;;;;;5048692;28;20106;-66
2022/06/09 06:33:18;;;;;;;22.92;18.10;;;15.00;99.90;;;;;;5048597;28;20052;-66
2022/06/09 06:35:45;;;;;;;19.65;17.60;;;15.10;99.90;;;;;;5055429;28;20045;-66
2022/06/09 06:38:11;;;;;;;22.17;17.58;;;15.10;99.90;;;;;;5045844;28;20099;-66
2022/06/09 06:40:36;;;;;;;22.20;17.40;;;15.10;99.90;;;;;;5049346;28;20064;-66
2022/06/09 06:43:02;;;;;;;19.92;17.05;;;15.20;99.90;;;;;;5057014;28;20045;-66
2022/06/09 06:45:28;;;;;;;19.77;16.88;;;15.30;99.90;;;;;;5049346;28;20468;-66
2022/06/09 06:47:56;;;;;;;20.40;16.92;;;15.30;99.90;;;;;;5050766;28;20070;-66
2022/06/09 06:50:22;;;;;;;17.73;15.35;;;15.30;99.90;;;;;;5049024;28;20460;-66
2022/06/09 06:52:47;;;;;;;21.20;15.20;;;15.40;99.90;;;;;;5050475;28;20088;-66
2022/06/09 06:55:15;;;;;;;17.33;13.95;;;15.30;99.90;;;;;;5044485;28;20045;-66
2022/06/09 06:57:41;;;;;;;16.35;13.65;;;15.30;99.90;;;;;;5048274;28;20199;-65
2022/06/09 07:00:09;;;;;;;14.80;13.27;;;15.40;99.90;;;;;;5048315;28;20132;-66
2022/06/09 07:02:35;;;;;;;14.63;13.13;;;15.40;99.90;;;;;;5048641;28;20531;-66
2022/06/09 07:05:00;;;;;;;15.88;14.15;;;15.50;99.90;;;;;;5053707;28;20123;-66
2022/06/09 07:07:26;;;;;;;16.70;13.65;;;15.60;99.90;;;;;;5048906;28;20112;-66
2022/06/09 07:09:52;;;;;;;17.13;11.75;;;15.60;99.90;;;;;;5044163;28;20084;-66
2022/06/09 07:12:18;;;;;;;12.90;11.60;;;15.70;99.90;;;;;;5045789;28;20501;-66
2022/06/09 07:14:44;;;;;;;12.32;10.52;;;15.80;99.90;;;;;;5048857;28;20044;-66
2022/06/09 07:17:09;;;;;;;10.15;9.02;;;16.00;99.90;;;;;;5048467;28;20445;-66
2022/06/09 07:19:35;;;;;;;7.75;6.22;;;15.80;99.90;;;;;;5045448;28;20564;-67
2022/06/09 07:22:02;;;;;;;8.95;6.28;;;15.90;99.90;;;;;;5046045;28;20436;-68
2022/06/09 07:24:29;;;;;;;8.82;5.82;;;15.90;99.90;;;;;;5050204;28;20128;-68
2022/06/09 07:26:55;;;;;;;7.30;6.35;;;16.00;99.90;;;;;;5045273;28;20132;-68
2022/06/09 07:29:21;;;;;;;8.88;6.57;;;16.20;99.90;;;;;;5045442;28;20069;-66
2022/06/09 07:31:47;;;;;;;7.13;5.80;;;16.10;99.90;;;;;;5044270;28;20838;-65
2022/06/09 07:34:13;;;;;;;6.93;4.82;;;16.20;99.90;;;;;;5045616;28;20045;-65
2022/06/09 07:36:40;;;;;;;8.65;4.72;;;16.20;99.90;;;;;;5053033;28;20033;-65
2022/06/09 07:39:05;;;;;;;5.07;4.50;;;16.30;99.90;;;;;;5047325;28;20509;-65
2022/06/09 07:41:31;;;;;;;3.90;3.50;;;16.30;99.90;;;;;;5053429;28;20045;-65
2022/06/09 07:43:59;;;;;;;5.72;3.90;;;16.40;99.90;;;;;;5059212;28;20098;-65
2022/06/09 07:46:24;;;;;;;4.95;3.42;;;16.40;99.90;;;;;;5048615;28;20048;-65
2022/06/09 07:48:52;;;;;;;4.45;4.05;;;16.50;99.90;;;;;;5048274;28;20409;-65
2022/06/09 07:51:18;;;;;;;6.68;3.60;;;16.60;99.90;;;;;;5048629;28;20059;-65
2022/06/09 07:53:43;;;;;;;9.60;3.75;;;16.80;99.90;;;;;;5048755;28;20041;-65
2022/06/09 07:56:10;;;;;;;4.63;3.72;;;16.80;99.90;;;;;;5047908;28;20644;-65
2022/06/09 07:58:36;;;;;;;3.55;3.20;;;16.80;99.90;;;;;;5047580;28;20127;-65
2022/06/09 08:01:02;;;;;;;4.32;3.50;;;17.00;99.90;;;;;;5047859;28;20131;-65
2022/06/09 08:03:27;;;;;;;6.63;3.20;;;16.90;99.90;;;;;;5048193;28;20041;-65
2022/06/09 08:05:54;;;;;;;3.55;2.88;;;17.00;99.90;;;;;;5047890;28;20441;-65
2022/06/09 08:08:20;;;;;;;3.55;2.80;;;17.50;99.90;;;;;;5048292;28;20083;-65
2022/06/09 08:10:47;;;;;;;5.47;2.40;;;17.10;99.90;;;;;;5054250;28;20033;-65
2022/06/09 08:13:14;;;;;;;3.45;1.90;;;17.10;99.90;;;;;;5054995;28;20106;-65
2022/06/09 08:15:43;;;;;;;7.03;2.30;;;17.10;99.90;;;;;;5048242;28;20044;-65
2022/06/09 08:18:08;;;;;;;4.63;2.17;;;17.10;99.90;;;;;;5055257;28;20424;-65
2022/06/09 08:20:37;;;;;;;4.93;1.60;;;17.20;99.90;;;;;;5067546;28;20045;-65
2022/06/09 08:23:14;;;;;;;3.30;1.48;;;17.30;99.90;;;;;;5067476;28;20507;-65
2022/06/09 08:25:41;;;;;;;3.33;1.10;;;17.30;99.90;;;;;;5067767;28;20041;-68
2022/06/09 08:28:07;;;;;;;4.00;1.60;;;17.30;99.90;;;;;;5066957;28;20090;-68
2022/06/09 08:30:35;;;;;;;2.75;1.30;;;17.40;99.90;;;;;;5050211;28;20562;-68
2022/06/09 08:33:01;;;;;;;1.55;0.82;;;17.50;99.90;;;;;;5055541;28;20044;-68
2022/06/09 08:35:27;;;;;;;4.72;1.30;;;17.50;99.90;;;;;;5047622;28;20049;-68
2022/06/09 08:37:54;;;;;;;4.03;1.65;;;17.50;99.90;;;;;;5047966;28;20049;-67
2022/06/09 08:40:32;;;;;;;3.13;1.10;;;17.60;99.90;;;;;;5046255;28;20476;-68
2022/06/09 08:43:12;;;;;;;6.55;1.65;;;17.20;99.90;;;;;;5046856;28;20480;-68
2022/06/09 08:45:42;;;;;;;4.28;1.63;;;17.70;99.90;;;;;;5046251;28;20091;-68
2022/06/09 08:48:20;;;;;;;5.30;1.65;;;17.70;99.90;;;;;;5061029;28;20493;-68
2022/06/09 08:51:01;;;;;;;3.25;1.40;;;17.80;99.90;;;;;;5067488;28;20385;-68
2022/06/09 08:53:39;;;;;;;2.75;0.98;;;17.90;99.90;;;;;;5061230;28;20057;-68
2022/06/09 08:56:17;;;;;;;1.50;1.10;;;18.00;99.90;;;;;;5051103;28;20381;-68
2022/06/09 08:58:50;;;;;;;3.92;1.33;;;18.10;99.90;;;;;;5052153;28;20052;-67
2022/06/09 09:01:22;;;;;;;5.53;1.02;;;18.10;99.90;;;;;;5047380;28;20512;-67
2022/06/09 09:04:04;;;;;;;4.10;1.65;;;18.00;99.90;;;;;;5052352;28;20048;-67
2022/06/09 09:06:30;;;;;;;;;;;18.10;99.90;;;;;;5051745;28;20123;-68
2022/06/09 09:09:23;;;;;;;2.03;1.00;;;18.10;99.90;;;;;;5054221;28;20475;-68
2022/06/09 09:12:04;;;;;;;5.93;1.08;;;18.20;99.90;;;;;;5044811;28;20053;-68
2022/06/09 09:14:42;;;;;;;2.63;1.15;;;18.20;99.90;;;;;;5056027;28;20562;-68
2022/06/09 09:17:19;;;;;;;4.32;1.17;;;18.20;99.90;;;;;;5057779;28;20160;-67
2022/06/09 09:19:56;;;;;;;1.55;1.00;;;18.30;99.90;;;;;;5053684;28;20137;-67
2022/06/09 09:22:33;;;;;;;4.93;1.00;;;18.40;99.90;;;;;;5047302;28;20122;-67
2022/06/09 09:25:14;;;;;;;3.92;1.13;;;18.50;99.90;;;;;;5048411;28;20065;-67
2022/06/09 09:27:53;;;;;;;6.15;1.15;;;18.50;99.90;;;;;;5050487;28;20041;-67
2022/06/09 09:30:21;;;;;;;6.05;1.10;;;18.60;99.90;;;;;;5045571;28;20037;-67
2022/06/09 09:32:49;;;;;;;4.20;1.48;;;18.70;99.90;;;;;;5055827;28;20036;-67
2022/06/09 09:35:27;;;;;;;4.75;1.00;;;18.70;99.90;;;;;;5059180;28;20054;-67
2022/06/09 09:37:55;;;;;;;5.05;1.10;;;18.70;99.90;;;;;;5051737;28;20056;-68
2022/06/09 09:40:43;;;;;;;5.00;1.58;;;18.60;99.90;;;;;;5060886;28;20501;-68
2022/06/09 09:43:23;;;;;;;3.85;1.35;;;18.60;99.90;;;;;;5046215;28;20554;-68
2022/06/09 09:45:53;;;;;;;2.30;0.85;;;18.50;99.90;;;;;;5045674;28;20047;-67
2022/06/09 09:48:21;;;;;;;4.80;1.42;;;18.50;99.90;;;;;;5049031;28;20056;-67
2022/06/09 09:50:58;;;;;;;4.97;1.65;;;18.50;99.90;;;;;;5044971;28;20052;-68
2022/06/09 09:53:30;;;;;;;5.40;1.50;;;18.60;99.90;;;;;;5046614;28;20049;-67
2022/06/09 09:55:58;;;;;;;5.37;1.10;;;18.70;99.90;;;;;;5046227;28;20550;-67
2022/06/09 09:58:28;;;;;;;6.43;1.58;;;18.70;99.90;;;;;;5054517;28;20714;-68
2022/06/09 10:01:05;;;;;;;4.43;1.15;;;18.80;99.90;;;;;;5050296;28;20048;-67
2022/06/09 10:09:46;;;;;;;7.65;1.63;;;19.20;99.90;;;;;;5066525;28;20052;-65
2022/06/09 10:12:25;;;;;;;4.53;1.50;;;19.10;99.90;;;;;;5065089;28;20121;-65
2022/06/09 10:15:09;;;;;;;6.25;1.73;;;19.20;99.90;;;;;;5051680;28;20446;-66
2022/06/09 10:18:02;;;;;;;4.70;1.30;;;19.30;99.90;;;;;;5047957;28;20053;-65
2022/06/09 10:20:47;;;;;;;2.88;1.13;;;19.30;99.90;;;;;;5045474;28;20045;-65
2022/06/09 10:23:31;;;;;;;4.22;1.15;;;19.20;99.90;;;;;;5044868;28;20045;-65
2022/06/09 10:26:10;;;;;;;6.55;1.77;;;19.10;99.90;;;;;;5046417;28;20041;-65
2022/06/09 10:29:06;;;;;;;3.45;1.15;;;19.10;99.90;;;;;;5045845;28;20464;-65
2022/06/09 10:32:02;;;;;;;5.45;1.05;;;19.20;99.90;;;;;;5045880;28;20136;-65
2022/06/09 10:34:35;;;;;;;4.47;1.05;;;19.40;99.90;;;;;;5044389;28;20055;-65
2022/06/09 10:37:21;;;;;;;2.50;0.82;;;19.50;99.90;;;;;;5045447;28;20044;-65
2022/06/09 10:40:01;;;;;;;4.13;1.27;;;19.60;99.90;;;;;;5045843;28;20207;-65
2022/06/09 10:42:37;;;;;;;6.47;1.35;;;19.60;99.90;;;;;;5045597;28;20049;-65
2022/06/09 10:45:21;;;;;;;3.83;1.08;;;19.70;99.90;;;;;;5045650;28;20053;-65
2022/06/09 10:57:31;;;;;;;5.40;1.27;;;19.80;99.90;;;;;;5046013;28;20045;-65
2022/06/09 11:00:08;;;;;;;5.78;1.20;;;20.10;99.90;;;;;;5045610;28;20496;-65
2022/06/09 11:02:34;;;;;;;3.65;0.90;;;20.10;99.90;;;;;;5043753;28;20524;-65
2022/06/09 11:05:01;;;;;;;2.95;1.17;;;20.10;99.90;;;;;;5044031;28;20120;-65
2022/06/09 11:07:52;;;;;;;5.60;1.45;;;20.20;99.90;;;;;;5046015;28;20080;-65
2022/06/09 11:10:49;;;;;;;6.30;1.17;;;20.20;99.90;;;;;;5044103;28;20144;-65
2022/06/09 11:13:22;;;;;;;6.18;1.17;;;20.30;99.90;;;;;;5043719;28;20141;-65
2022/06/09 11:16:14;;;;;;;4.60;1.27;;;20.20;99.90;;;;;;5048956;28;20078;-65
2022/06/09 11:19:06;;;;;;;4.18;0.80;;;20.10;99.90;;;;;;5049118;28;20056;-66
2022/06/09 11:22:01;;;;;;;;;;;20.20;99.90;;;;;;5049795;28;20056;-65
2022/06/09 11:24:39;;;;;;;2.78;0.73;;;20.20;99.90;;;;;;5011553;28;20425;-65
2022/06/09 11:27:58;;;;;;;3.38;0.95;;;20.40;99.90;;;;;;5048857;28;20048;-65
2022/06/09 11:31:05;;;;;;;3.45;0.95;;;20.20;99.90;;;;;;5025317;28;20072;-65
2022/06/09 11:33:58;;;;;;;7.25;1.73;;;20.10;99.90;;;;;;5049241;28;20095;-65
2022/06/09 11:36:34;;;;;;;1.92;0.80;;;20.20;99.90;;;;;;5048876;28;20059;-65
2022/06/09 11:39:29;;;;;;;4.28;0.80;;;20.40;99.90;;;;;;5047496;28;20494;-65
2022/06/09 11:42:29;;;;;;;4.38;1.05;;;20.40;99.90;;;;;;5048076;28;20056;-66
2022/06/09 11:45:02;;;;;;;5.13;1.35;;;20.30;99.90;;;;;;5050905;28;20049;-66
2022/06/09 11:47:33;;;;;;;1.15;0.55;;;20.40;99.90;;;;;;5066090;28;20050;-64
2022/06/09 11:50:04;;;;;;;2.03;0.85;;;20.40;99.90;;;;;;5053025;28;20746;-64
2022/06/09 11:52:44;;;;;;;2.58;0.90;;;20.50;99.90;;;;;;5048035;28;20524;-66
2022/06/09 11:55:57;;;;;;;3.40;1.13;;;20.50;99.90;;;;;;5048878;28;20033;-66
2022/06/09 11:58:35;;;;;;;3.80;1.02;;;20.60;99.90;;;;;;5042567;28;20693;-66
2022/06/09 12:01:16;;;;;;;5.13;1.25;;;20.70;99.90;;;;;;5052712;28;20041;-66
2022/06/09 12:03:48;;;;;;;7.37;1.07;;;20.60;99.90;;;;;;5055439;28;20148;-65
2022/06/09 12:06:20;;;;;;;3.17;1.33;;;20.60;99.90;;;;;;5063540;28;20048;-66
2022/06/09 12:09:25;;;;;;;2.45;1.08;;;20.60;99.90;;;;;;5068697;28;20386;-65
2022/06/09 12:12:01;;;;;;;4.75;1.20;;;20.70;99.90;;;;;;5067229;28;20060;-65
2022/06/09 12:14:37;;;;;;;1.90;1.00;;;20.70;99.90;;;;;;5068591;28;20036;-65
2022/06/09 12:17:20;;;;;;;3.63;0.85;;;20.80;99.90;;;;;;5049870;28;20247;-65
2022/06/09 12:20:03;;;;;;;4.45;1.42;;;20.90;99.90;;;;;;5054239;28;20045;-65
2022/06/09 12:22:41;;;;;;;3.60;1.00;;;21.00;99.90;;;;;;5055691;28;20055;-65
2022/06/09 12:25:10;;;;;;;5.85;1.30;;;21.10;99.90;;;;;;5054030;28;20040;-65
2022/06/09 12:27:38;;;;;;;4.55;1.20;;;21.20;99.90;;;;;;5066957;28;20068;-65
2022/06/09 12:30:04;;;;;;;3.30;1.00;;;21.20;99.90;;;;;;5050460;28;20059;-65
2022/06/09 12:32:45;;;;;;;4.97;1.00;;;21.20;99.90;;;;;;5051518;28;20057;-65
2022/06/09 12:35:29;;;;;;;4.65;1.55;;;21.20;99.90;;;;;;5052910;28;20040;-65
2022/06/09 12:37:57;;;;;;;6.10;1.30;;;21.10;99.90;;;;;;5046300;28;20405;-65
2022/06/09 12:40:31;;;;;;;4.78;0.93;;;21.10;99.90;;;;;;5048387;28;20051;-65
2022/06/09 12:43:09;;;;;;;2.13;0.90;;;21.00;99.90;;;;;;5048860;28;20045;-65
2022/06/09 12:45:37;;;;;;;6.25;1.20;;;20.70;99.90;;;;;;5047323;28;20107;-65
2022/06/09 12:48:13;;;;;;;7.30;1.40;;;20.40;99.90;;;;;;5048294;28;20045;-64
2022/06/09 12:50:46;;;;;;;4.57;1.00;;;20.20;99.90;;;;;;5047089;28;20179;-65
2022/06/09 12:53:19;;;;;;;2.88;1.02;;;20.00;99.90;;;;;;5047084;28;20045;-65
2022/06/09 12:55:53;;;;;;;6.80;1.45;;;20.10;99.90;;;;;;5055058;28;20033;-65
2022/06/09 12:58:20;;;;;;;3.35;1.10;;;19.20;99.90;;;;;;5045948;28;20052;-65
2022/06/09 13:00:52;;;;;;;3.95;1.67;;;20.40;99.90;;;;;;5047080;28;20040;-64
2022/06/09 13:03:21;;;;;;;6.40;1.10;;;20.60;99.90;;;;;;5057989;28;20183;-64
2022/06/09 13:05:47;;;;;;;3.88;1.13;;;20.70;99.90;;;;;;5054206;28;20098;-65
2022/06/09 13:08:21;;;;;;;3.47;1.00;;;21.10;99.90;;;;;;5066835;28;20512;-65
2022/06/09 13:11:07;;;;;;;3.08;1.17;;;21.40;99.90;;;;;;5067248;28;20048;-65
2022/06/09 13:13:44;;;;;;;9.65;1.83;;;21.60;99.90;;;;;;5067306;28;20556;-65
2022/06/09 13:16:17;;;;;;;2.47;0.90;;;21.60;99.90;;;;;;5059790;28;20084;-65
2022/06/09 13:18:47;;;;;;;4.03;1.52;;;21.40;99.90;;;;;;5055025;28;20456;-64
2022/06/09 13:21:19;;;;;;;5.82;1.27;;;21.20;99.90;;;;;;5047500;28;20049;-65